sensor_id;sensor_type;location;lat;lon;timestamp;P1;durP1;ratioP1;P2;durP2;ratioP2
39874;SDS011;25547;52.530;13.194;2022-12-18T00:01:22;39.22;;;12.95;;
39874;SDS011;25547;52.530;13.194;2022-12-18T00:03:56;43.92;;;14.32;;
39874;SDS011;25547;52.530;13.194;2022-12-18T00:06:25;42.25;;;12.70;;
39874;SDS011;25547;52.530;13.194;2022-12-18T00:08:53;49.40;;;13.68;;
39874;SDS011;25547;52.530;13.194;2022-12-18T00:11:20;48.70;;;13.60;;
39874;SDS011;25547;52.530;13.194;2022-12-18T00:13:49;39.63;;;12.73;;
39874;SDS011;25547;52.530;13.194;2022-12-18T00:16:16;46.20;;;14.65;;
39874;SDS011;25547;52.530;13.194;2022-12-18T00:18:46;56.37;;;15.03;;
39874;SDS011;25547;52.530;13.194;2022-12-18T00:21:18;54.72;;;16.98;;
39874;SDS011;25547;52.530;13.194;2022-12-18T00:23:45;60.38;;;14.77;;
39874;SDS011;25547;52.530;13.194;2022-12-18T00:26:16;54.95;;;17.17;;
39874;SDS011;25547;52.530;13.194;2022-12-18T00:28:43;47.13;;;14.98;;
39874;SDS011;25547;52.530;13.194;2022-12-18T00:31:10;45.17;;;15.18;;
39874;SDS011;25547;52.530;13.194;2022-12-18T00:33:37;45.53;;;14.95;;
39874;SDS011;25547;52.530;13.194;2022-12-18T00:36:08;56.38;;;14.55;;
39874;SDS011;25547;52.530;13.194;2022-12-18T00:38:39;50.38;;;14.82;;
39874;SDS011;25547;52.530;13.194;2022-12-18T00:41:09;47.17;;;14.98;;
39874;SDS011;25547;52.530;13.194;2022-12-18T00:43:38;49.80;;;17.33;;
39874;SDS011;25547;52.530;13.194;2022-12-18T00:48:34;57.45;;;16.25;;
39874;SDS011;25547;52.530;13.194;2022-12-18T00:51:00;56.20;;;16.85;;
39874;SDS011;25547;52.530;13.194;2022-12-18T00:53:26;56.92;;;15.30;;
39874;SDS011;25547;52.530;13.194;2022-12-18T00:55:54;56.55;;;15.82;;
39874;SDS011;25547;52.530;13.194;2022-12-18T00:58:19;56.28;;;16.50;;
39874;SDS011;25547;52.530;13.194;2022-12-18T01:00:45;51.80;;;16.15;;
39874;SDS011;25547;52.530;13.194;2022-12-18T01:03:12;52.83;;;14.45;;
39874;SDS011;25547;52.530;13.194;2022-12-18T01:05:39;62.08;;;19.02;;
39874;SDS011;25547;52.530;13.194;2022-12-18T01:08:06;62.65;;;17.50;;
39874;SDS011;25547;52.530;13.194;2022-12-18T01:10:32;62.08;;;16.80;;
39874;SDS011;25547;52.530;13.194;2022-12-18T01:12:57;57.45;;;15.60;;
39874;SDS011;25547;52.530;13.194;2022-12-18T01:15:23;52.88;;;14.93;;
39874;SDS011;25547;52.530;13.194;2022-12-18T01:17:52;54.10;;;16.98;;
39874;SDS011;25547;52.530;13.194;2022-12-18T01:20:18;58.05;;;16.17;;
39874;SDS011;25547;52.530;13.194;2022-12-18T01:22:46;54.92;;;16.95;;
39874;SDS011;25547;52.530;13.194;2022-12-18T01:25:12;55.15;;;17.35;;
39874;SDS011;25547;52.530;13.194;2022-12-18T01:27:37;57.40;;;17.05;;
39874;SDS011;25547;52.530;13.194;2022-12-18T01:30:06;54.97;;;16.15;;
39874;SDS011;25547;52.530;13.194;2022-12-18T01:32:32;53.28;;;14.50;;
39874;SDS011;25547;52.530;13.194;2022-12-18T01:34:58;50.08;;;15.07;;
39874;SDS011;25547;52.530;13.194;2022-12-18T01:37:24;44.42;;;15.10;;
39874;SDS011;25547;52.530;13.194;2022-12-18T01:39:50;49.00;;;13.13;;
39874;SDS011;25547;52.530;13.194;2022-12-18T01:42:19;49.22;;;14.57;;
39874;SDS011;25547;52.530;13.194;2022-12-18T01:44:56;48.95;;;12.30;;
39874;SDS011;25547;52.530;13.194;2022-12-18T01:47:44;54.67;;;15.63;;
39874;SDS011;25547;52.530;13.194;2022-12-18T01:52:58;51.72;;;14.18;;
39874;SDS011;25547;52.530;13.194;2022-12-18T01:55:31;47.22;;;13.63;;
39874;SDS011;25547;52.530;13.194;2022-12-18T01:58:02;46.40;;;13.90;;
39874;SDS011;25547;52.530;13.194;2022-12-18T02:00:28;43.03;;;11.65;;
39874;SDS011;25547;52.530;13.194;2022-12-18T02:02:57;57.40;;;16.75;;
39874;SDS011;25547;52.530;13.194;2022-12-18T02:05:26;50.50;;;13.95;;
39874;SDS011;25547;52.530;13.194;2022-12-18T02:08:15;44.97;;;16.55;;
39874;SDS011;25547;52.530;13.194;2022-12-18T02:16:29;48.70;;;15.20;;
39874;SDS011;25547;52.530;13.194;2022-12-18T02:19:55;37.90;;;12.20;;
39874;SDS011;25547;52.530;13.194;2022-12-18T02:27:15;43.40;;;13.25;;
39874;SDS011;25547;52.530;13.194;2022-12-18T02:29:46;49.63;;;14.07;;
39874;SDS011;25547;52.530;13.194;2022-12-18T02:32:20;50.78;;;14.15;;
39874;SDS011;25547;52.530;13.194;2022-12-18T02:34:50;47.67;;;14.43;;
39874;SDS011;25547;52.530;13.194;2022-12-18T02:37:17;35.80;;;12.05;;
39874;SDS011;25547;52.530;13.194;2022-12-18T02:39:46;49.03;;;14.55;;
39874;SDS011;25547;52.530;13.194;2022-12-18T02:42:13;55.22;;;13.65;;
39874;SDS011;25547;52.530;13.194;2022-12-18T02:44:44;51.30;;;14.45;;
39874;SDS011;25547;52.530;13.194;2022-12-18T02:47:12;45.33;;;12.73;;
39874;SDS011;25547;52.530;13.194;2022-12-18T02:55:12;44.58;;;11.65;;
39874;SDS011;25547;52.530;13.194;2022-12-18T02:58:19;48.20;;;14.30;;
39874;SDS011;25547;52.530;13.194;2022-12-18T03:01:12;42.80;;;12.27;;
39874;SDS011;25547;52.530;13.194;2022-12-18T03:03:55;44.30;;;10.05;;
39874;SDS011;25547;52.530;13.194;2022-12-18T03:06:38;46.28;;;15.32;;
39874;SDS011;25547;52.530;13.194;2022-12-18T03:09:09;54.50;;;14.98;;
39874;SDS011;25547;52.530;13.194;2022-12-18T03:11:40;55.78;;;14.32;;
39874;SDS011;25547;52.530;13.194;2022-12-18T03:14:29;48.92;;;13.80;;
39874;SDS011;25547;52.530;13.194;2022-12-18T03:17:02;52.22;;;13.40;;
39874;SDS011;25547;52.530;13.194;2022-12-18T03:19:31;49.17;;;14.77;;
39874;SDS011;25547;52.530;13.194;2022-12-18T03:22:01;51.08;;;13.35;;
39874;SDS011;25547;52.530;13.194;2022-12-18T03:24:28;50.25;;;15.85;;
39874;SDS011;25547;52.530;13.194;2022-12-18T03:27:05;48.33;;;14.55;;
39874;SDS011;25547;52.530;13.194;2022-12-18T03:29:38;50.78;;;15.15;;
39874;SDS011;25547;52.530;13.194;2022-12-18T03:32:09;53.78;;;13.43;;
39874;SDS011;25547;52.530;13.194;2022-12-18T03:34:40;55.80;;;15.43;;
39874;SDS011;25547;52.530;13.194;2022-12-18T03:37:10;56.63;;;13.82;;
39874;SDS011;25547;52.530;13.194;2022-12-18T03:39:36;53.85;;;15.45;;
39874;SDS011;25547;52.530;13.194;2022-12-18T03:44:57;47.75;;;13.18;;
39874;SDS011;25547;52.530;13.194;2022-12-18T03:50:35;49.45;;;15.02;;
39874;SDS011;25547;52.530;13.194;2022-12-18T03:53:35;50.22;;;15.35;;
39874;SDS011;25547;52.530;13.194;2022-12-18T03:56:18;46.53;;;14.38;;
39874;SDS011;25547;52.530;13.194;2022-12-18T03:58:48;49.22;;;14.35;;
39874;SDS011;25547;52.530;13.194;2022-12-18T04:01:16;44.17;;;13.07;;
39874;SDS011;25547;52.530;13.194;2022-12-18T04:03:43;58.83;;;15.50;;
39874;SDS011;25547;52.530;13.194;2022-12-18T04:06:14;41.20;;;14.60;;
39874;SDS011;25547;52.530;13.194;2022-12-18T04:08:41;59.40;;;14.07;;
39874;SDS011;25547;52.530;13.194;2022-12-18T04:11:10;53.38;;;15.50;;
39874;SDS011;25547;52.530;13.194;2022-12-18T04:13:42;60.83;;;14.82;;
39874;SDS011;25547;52.530;13.194;2022-12-18T04:16:08;58.03;;;15.60;;
39874;SDS011;25547;52.530;13.194;2022-12-18T04:18:37;61.20;;;14.98;;
39874;SDS011;25547;52.530;13.194;2022-12-18T04:21:03;59.22;;;15.15;;
39874;SDS011;25547;52.530;13.194;2022-12-18T04:23:29;52.42;;;15.85;;
39874;SDS011;25547;52.530;13.194;2022-12-18T04:25:57;64.45;;;17.10;;
39874;SDS011;25547;52.530;13.194;2022-12-18T04:28:23;66.65;;;18.15;;
39874;SDS011;25547;52.530;13.194;2022-12-18T04:30:51;58.92;;;16.20;;
39874;SDS011;25547;52.530;13.194;2022-12-18T04:33:17;63.05;;;19.60;;
39874;SDS011;25547;52.530;13.194;2022-12-18T04:35:43;66.40;;;19.80;;
39874;SDS011;25547;52.530;13.194;2022-12-18T04:38:09;58.17;;;15.95;;
39874;SDS011;25547;52.530;13.194;2022-12-18T04:40:40;67.50;;;19.73;;
39874;SDS011;25547;52.530;13.194;2022-12-18T04:43:06;60.17;;;17.08;;
39874;SDS011;25547;52.530;13.194;2022-12-18T04:45:35;60.95;;;18.42;;
39874;SDS011;25547;52.530;13.194;2022-12-18T04:48:01;60.90;;;15.73;;
39874;SDS011;25547;52.530;13.194;2022-12-18T04:50:27;59.75;;;15.32;;
39874;SDS011;25547;52.530;13.194;2022-12-18T04:52:56;63.50;;;16.08;;
39874;SDS011;25547;52.530;13.194;2022-12-18T04:55:22;66.88;;;19.80;;
39874;SDS011;25547;52.530;13.194;2022-12-18T05:00:19;57.28;;;16.60;;
39874;SDS011;25547;52.530;13.194;2022-12-18T05:02:45;63.80;;;19.52;;
39874;SDS011;25547;52.530;13.194;2022-12-18T05:05:11;61.33;;;18.25;;
39874;SDS011;25547;52.530;13.194;2022-12-18T05:07:39;60.53;;;16.10;;
39874;SDS011;25547;52.530;13.194;2022-12-18T05:10:05;47.53;;;14.20;;
39874;SDS011;25547;52.530;13.194;2022-12-18T05:12:33;52.05;;;15.98;;
39874;SDS011;25547;52.530;13.194;2022-12-18T05:14:59;64.00;;;19.45;;
39874;SDS011;25547;52.530;13.194;2022-12-18T05:17:24;61.50;;;21.10;;
39874;SDS011;25547;52.530;13.194;2022-12-18T05:19:50;67.50;;;16.55;;
39874;SDS011;25547;52.530;13.194;2022-12-18T05:22:16;62.95;;;16.42;;
39874;SDS011;25547;52.530;13.194;2022-12-18T05:24:44;63.55;;;18.85;;
39874;SDS011;25547;52.530;13.194;2022-12-18T05:27:09;56.28;;;16.67;;
39874;SDS011;25547;52.530;13.194;2022-12-18T05:29:35;60.58;;;18.70;;
39874;SDS011;25547;52.530;13.194;2022-12-18T05:32:03;67.78;;;20.83;;
39874;SDS011;25547;52.530;13.194;2022-12-18T05:34:31;60.88;;;19.45;;
39874;SDS011;25547;52.530;13.194;2022-12-18T05:36:58;51.38;;;15.77;;
39874;SDS011;25547;52.530;13.194;2022-12-18T05:39:24;61.10;;;18.10;;
39874;SDS011;25547;52.530;13.194;2022-12-18T05:41:50;51.00;;;16.30;;
39874;SDS011;25547;52.530;13.194;2022-12-18T05:44:15;59.72;;;18.00;;
39874;SDS011;25547;52.530;13.194;2022-12-18T05:46:41;55.55;;;18.20;;
39874;SDS011;25547;52.530;13.194;2022-12-18T05:49:07;51.22;;;16.20;;
39874;SDS011;25547;52.530;13.194;2022-12-18T05:51:35;54.63;;;16.60;;
39874;SDS011;25547;52.530;13.194;2022-12-18T05:54:01;53.08;;;16.10;;
39874;SDS011;25547;52.530;13.194;2022-12-18T05:56:27;49.33;;;15.82;;
39874;SDS011;25547;52.530;13.194;2022-12-18T05:58:53;62.20;;;18.83;;
39874;SDS011;25547;52.530;13.194;2022-12-18T06:01:22;55.60;;;16.45;;
39874;SDS011;25547;52.530;13.194;2022-12-18T06:03:50;57.13;;;16.50;;
39874;SDS011;25547;52.530;13.194;2022-12-18T06:06:17;64.57;;;16.25;;
39874;SDS011;25547;52.530;13.194;2022-12-18T06:08:50;56.15;;;15.85;;
39874;SDS011;25547;52.530;13.194;2022-12-18T06:11:18;55.92;;;15.93;;
39874;SDS011;25547;52.530;13.194;2022-12-18T06:13:46;54.95;;;17.58;;
39874;SDS011;25547;52.530;13.194;2022-12-18T06:16:14;55.70;;;17.95;;
39874;SDS011;25547;52.530;13.194;2022-12-18T06:18:42;67.80;;;17.15;;
39874;SDS011;25547;52.530;13.194;2022-12-18T06:21:08;71.22;;;19.27;;
39874;SDS011;25547;52.530;13.194;2022-12-18T06:23:36;61.47;;;15.65;;
39874;SDS011;25547;52.530;13.194;2022-12-18T06:26:06;68.05;;;19.45;;
39874;SDS011;25547;52.530;13.194;2022-12-18T06:28:34;64.75;;;19.95;;
39874;SDS011;25547;52.530;13.194;2022-12-18T06:31:00;61.85;;;17.10;;
39874;SDS011;25547;52.530;13.194;2022-12-18T06:33:27;60.67;;;16.23;;
39874;SDS011;25547;52.530;13.194;2022-12-18T06:35:53;50.63;;;16.88;;
39874;SDS011;25547;52.530;13.194;2022-12-18T06:38:19;43.13;;;14.90;;
39874;SDS011;25547;52.530;13.194;2022-12-18T06:40:45;50.70;;;14.73;;
39874;SDS011;25547;52.530;13.194;2022-12-18T06:43:11;50.95;;;16.85;;
39874;SDS011;25547;52.530;13.194;2022-12-18T06:45:36;48.40;;;14.25;;
39874;SDS011;25547;52.530;13.194;2022-12-18T06:48:02;36.28;;;15.25;;
39874;SDS011;25547;52.530;13.194;2022-12-18T06:50:28;39.75;;;13.73;;
39874;SDS011;25547;52.530;13.194;2022-12-18T06:52:54;43.80;;;13.35;;
39874;SDS011;25547;52.530;13.194;2022-12-18T06:55:20;43.38;;;13.27;;
39874;SDS011;25547;52.530;13.194;2022-12-18T06:57:48;42.58;;;13.38;;
39874;SDS011;25547;52.530;13.194;2022-12-18T07:00:14;46.30;;;13.98;;
39874;SDS011;25547;52.530;13.194;2022-12-18T07:02:39;36.60;;;11.90;;
39874;SDS011;25547;52.530;13.194;2022-12-18T07:05:05;46.90;;;12.55;;
39874;SDS011;25547;52.530;13.194;2022-12-18T07:07:34;40.80;;;13.25;;
39874;SDS011;25547;52.530;13.194;2022-12-18T07:10:00;42.28;;;13.57;;
39874;SDS011;25547;52.530;13.194;2022-12-18T07:12:26;43.70;;;13.27;;
39874;SDS011;25547;52.530;13.194;2022-12-18T07:14:52;42.35;;;12.35;;
39874;SDS011;25547;52.530;13.194;2022-12-18T07:17:18;34.35;;;13.45;;
39874;SDS011;25547;52.530;13.194;2022-12-18T07:19:44;39.80;;;12.55;;
39874;SDS011;25547;52.530;13.194;2022-12-18T07:22:10;39.88;;;13.18;;
39874;SDS011;25547;52.530;13.194;2022-12-18T07:24:38;44.85;;;12.60;;
39874;SDS011;25547;52.530;13.194;2022-12-18T07:27:06;40.15;;;12.32;;
39874;SDS011;25547;52.530;13.194;2022-12-18T07:29:34;41.50;;;13.93;;
39874;SDS011;25547;52.530;13.194;2022-12-18T07:32:00;46.53;;;14.32;;
39874;SDS011;25547;52.530;13.194;2022-12-18T07:34:25;46.95;;;15.63;;
39874;SDS011;25547;52.530;13.194;2022-12-18T07:36:53;47.38;;;13.10;;
39874;SDS011;25547;52.530;13.194;2022-12-18T07:39:21;40.75;;;15.65;;
39874;SDS011;25547;52.530;13.194;2022-12-18T07:41:47;51.20;;;15.50;;
39874;SDS011;25547;52.530;13.194;2022-12-18T07:44:33;49.78;;;14.45;;
39874;SDS011;25547;52.530;13.194;2022-12-18T07:47:04;51.60;;;16.30;;
39874;SDS011;25547;52.530;13.194;2022-12-18T07:49:29;53.40;;;14.70;;
39874;SDS011;25547;52.530;13.194;2022-12-18T07:51:55;57.45;;;15.75;;
39874;SDS011;25547;52.530;13.194;2022-12-18T07:54:22;51.83;;;15.98;;
39874;SDS011;25547;52.530;13.194;2022-12-18T07:56:48;54.97;;;14.52;;
39874;SDS011;25547;52.530;13.194;2022-12-18T07:59:17;53.42;;;15.77;;
39874;SDS011;25547;52.530;13.194;2022-12-18T08:01:43;58.15;;;19.15;;
39874;SDS011;25547;52.530;13.194;2022-12-18T08:04:09;52.95;;;16.80;;
39874;SDS011;25547;52.530;13.194;2022-12-18T08:06:38;55.65;;;17.38;;
39874;SDS011;25547;52.530;13.194;2022-12-18T08:09:04;57.75;;;17.77;;
39874;SDS011;25547;52.530;13.194;2022-12-18T08:11:30;57.00;;;18.52;;
39874;SDS011;25547;52.530;13.194;2022-12-18T08:13:58;65.93;;;17.58;;
39874;SDS011;25547;52.530;13.194;2022-12-18T08:16:26;70.47;;;20.50;;
39874;SDS011;25547;52.530;13.194;2022-12-18T08:18:52;81.22;;;22.30;;
39874;SDS011;25547;52.530;13.194;2022-12-18T08:21:20;74.00;;;22.55;;
39874;SDS011;25547;52.530;13.194;2022-12-18T08:23:48;79.22;;;22.70;;
39874;SDS011;25547;52.530;13.194;2022-12-18T08:26:14;72.82;;;19.55;;
39874;SDS011;25547;52.530;13.194;2022-12-18T08:28:46;77.18;;;22.92;;
39874;SDS011;25547;52.530;13.194;2022-12-18T08:31:12;74.72;;;22.17;;
39874;SDS011;25547;52.530;13.194;2022-12-18T08:33:38;57.10;;;17.35;;
39874;SDS011;25547;52.530;13.194;2022-12-18T08:36:08;67.57;;;21.80;;
39874;SDS011;25547;52.530;13.194;2022-12-18T08:38:34;69.10;;;21.48;;
39874;SDS011;25547;52.530;13.194;2022-12-18T08:41:05;55.72;;;20.10;;
39874;SDS011;25547;52.530;13.194;2022-12-18T08:43:32;58.30;;;19.52;;
39874;SDS011;25547;52.530;13.194;2022-12-18T08:46:17;59.10;;;19.92;;
39874;SDS011;25547;52.530;13.194;2022-12-18T08:48:46;52.90;;;14.77;;
39874;SDS011;25547;52.530;13.194;2022-12-18T08:51:18;52.15;;;16.30;;
39874;SDS011;25547;52.530;13.194;2022-12-18T08:53:47;53.55;;;16.10;;
39874;SDS011;25547;52.530;13.194;2022-12-18T08:56:15;51.10;;;16.42;;
39874;SDS011;25547;52.530;13.194;2022-12-18T08:58:41;55.30;;;16.20;;
39874;SDS011;25547;52.530;13.194;2022-12-18T09:01:11;48.85;;;16.67;;
39874;SDS011;25547;52.530;13.194;2022-12-18T09:03:38;50.05;;;14.05;;
39874;SDS011;25547;52.530;13.194;2022-12-18T09:06:04;44.30;;;12.57;;
39874;SDS011;25547;52.530;13.194;2022-12-18T09:08:30;52.88;;;14.15;;
39874;SDS011;25547;52.530;13.194;2022-12-18T09:10:59;44.60;;;16.13;;
39874;SDS011;25547;52.530;13.194;2022-12-18T09:13:27;39.25;;;12.30;;
39874;SDS011;25547;52.530;13.194;2022-12-18T09:15:54;39.17;;;13.90;;
39874;SDS011;25547;52.530;13.194;2022-12-18T09:18:20;52.58;;;15.93;;
39874;SDS011;25547;52.530;13.194;2022-12-18T09:20:47;44.92;;;13.70;;
39874;SDS011;25547;52.530;13.194;2022-12-18T09:23:15;48.53;;;15.30;;
39874;SDS011;25547;52.530;13.194;2022-12-18T09:25:44;43.25;;;15.73;;
39874;SDS011;25547;52.530;13.194;2022-12-18T09:28:11;90.80;;;34.95;;
39874;SDS011;25547;52.530;13.194;2022-12-18T09:30:41;63.15;;;19.10;;
39874;SDS011;25547;52.530;13.194;2022-12-18T09:33:13;55.95;;;18.58;;
39874;SDS011;25547;52.530;13.194;2022-12-18T09:35:39;57.85;;;17.67;;
39874;SDS011;25547;52.530;13.194;2022-12-18T09:38:09;52.65;;;13.25;;
39874;SDS011;25547;52.530;13.194;2022-12-18T09:40:42;55.70;;;15.23;;
39874;SDS011;25547;52.530;13.194;2022-12-18T09:43:18;57.25;;;16.25;;
39874;SDS011;25547;52.530;13.194;2022-12-18T09:45:53;55.10;;;17.10;;
39874;SDS011;25547;52.530;13.194;2022-12-18T09:48:36;48.92;;;15.75;;
39874;SDS011;25547;52.530;13.194;2022-12-18T09:51:11;56.08;;;17.42;;
39874;SDS011;25547;52.530;13.194;2022-12-18T09:53:52;56.10;;;17.52;;
39874;SDS011;25547;52.530;13.194;2022-12-18T09:56:25;61.55;;;16.17;;
39874;SDS011;25547;52.530;13.194;2022-12-18T09:58:59;54.40;;;16.95;;
39874;SDS011;25547;52.530;13.194;2022-12-18T10:01:27;50.80;;;16.33;;
39874;SDS011;25547;52.530;13.194;2022-12-18T10:03:56;59.00;;;16.97;;
39874;SDS011;25547;52.530;13.194;2022-12-18T10:14:25;57.55;;;17.40;;
39874;SDS011;25547;52.530;13.194;2022-12-18T10:27:42;58.72;;;18.15;;
39874;SDS011;25547;52.530;13.194;2022-12-18T10:30:15;59.50;;;17.13;;
39874;SDS011;25547;52.530;13.194;2022-12-18T10:32:42;54.83;;;17.73;;
39874;SDS011;25547;52.530;13.194;2022-12-18T10:35:11;52.53;;;16.73;;
39874;SDS011;25547;52.530;13.194;2022-12-18T10:48:39;53.53;;;17.42;;
39874;SDS011;25547;52.530;13.194;2022-12-18T10:51:23;54.80;;;18.40;;
39874;SDS011;25547;52.530;13.194;2022-12-18T10:56:38;57.85;;;16.92;;
39874;SDS011;25547;52.530;13.194;2022-12-18T10:59:05;46.67;;;16.20;;
39874;SDS011;25547;52.530;13.194;2022-12-18T11:07:03;46.70;;;13.63;;
39874;SDS011;25547;52.530;13.194;2022-12-18T11:09:31;42.85;;;14.02;;
39874;SDS011;25547;52.530;13.194;2022-12-18T11:14:48;35.35;;;12.48;;
39874;SDS011;25547;52.530;13.194;2022-12-18T11:20:00;41.85;;;14.35;;
39874;SDS011;25547;52.530;13.194;2022-12-18T11:22:29;41.08;;;13.55;;
39874;SDS011;25547;52.530;13.194;2022-12-18T11:25:01;32.28;;;11.90;;
39874;SDS011;25547;52.530;13.194;2022-12-18T11:27:30;39.30;;;12.93;;
39874;SDS011;25547;52.530;13.194;2022-12-18T11:30:09;45.45;;;13.32;;
39874;SDS011;25547;52.530;13.194;2022-12-18T11:35:21;37.75;;;11.65;;
39874;SDS011;25547;52.530;13.194;2022-12-18T11:40:59;38.33;;;13.98;;
39874;SDS011;25547;52.530;13.194;2022-12-18T11:43:53;40.40;;;12.40;;
39874;SDS011;25547;52.530;13.194;2022-12-18T11:46:30;41.55;;;13.27;;
39874;SDS011;25547;52.530;13.194;2022-12-18T11:51:49;37.88;;;13.75;;
39874;SDS011;25547;52.530;13.194;2022-12-18T11:54:20;33.65;;;11.55;;
39874;SDS011;25547;52.530;13.194;2022-12-18T11:56:48;40.47;;;14.10;;
39874;SDS011;25547;52.530;13.194;2022-12-18T12:01:55;36.40;;;12.63;;
39874;SDS011;25547;52.530;13.194;2022-12-18T12:37:21;40.90;;;15.55;;
39874;SDS011;25547;52.530;13.194;2022-12-18T12:39:51;36.95;;;13.98;;
39874;SDS011;25547;52.530;13.194;2022-12-18T12:42:20;41.15;;;16.65;;
39874;SDS011;25547;52.530;13.194;2022-12-18T12:45:09;41.63;;;13.88;;
39874;SDS011;25547;52.530;13.194;2022-12-18T12:47:44;48.50;;;16.63;;
39874;SDS011;25547;52.530;13.194;2022-12-18T12:50:14;40.13;;;14.50;;
39874;SDS011;25547;52.530;13.194;2022-12-18T12:52:44;42.17;;;14.77;;
39874;SDS011;25547;52.530;13.194;2022-12-18T12:55:26;47.17;;;14.07;;
39874;SDS011;25547;52.530;13.194;2022-12-18T12:58:07;37.10;;;13.13;;
39874;SDS011;25547;52.530;13.194;2022-12-18T13:00:58;71.90;;;27.02;;
39874;SDS011;25547;52.530;13.194;2022-12-18T13:06:47;41.83;;;12.30;;
39874;SDS011;25547;52.530;13.194;2022-12-18T13:09:23;43.08;;;13.23;;
39874;SDS011;25547;52.530;13.194;2022-12-18T13:11:49;42.95;;;14.27;;
39874;SDS011;25547;52.530;13.194;2022-12-18T13:14:34;40.47;;;14.80;;
39874;SDS011;25547;52.530;13.194;2022-12-18T13:19:49;30.10;;;11.27;;
39874;SDS011;25547;52.530;13.194;2022-12-18T13:22:23;38.17;;;13.68;;
39874;SDS011;25547;52.530;13.194;2022-12-18T13:24:55;32.20;;;11.40;;
39874;SDS011;25547;52.530;13.194;2022-12-18T13:40:58;35.17;;;12.98;;
39874;SDS011;25547;52.530;13.194;2022-12-18T13:48:27;36.58;;;13.98;;
39874;SDS011;25547;52.530;13.194;2022-12-18T13:51:05;31.40;;;11.38;;
39874;SDS011;25547;52.530;13.194;2022-12-18T13:53:38;34.42;;;12.35;;
39874;SDS011;25547;52.530;13.194;2022-12-18T13:56:08;30.48;;;11.77;;
39874;SDS011;25547;52.530;13.194;2022-12-18T13:58:34;32.00;;;11.13;;
39874;SDS011;25547;52.530;13.194;2022-12-18T14:00:59;43.30;;;13.20;;
39874;SDS011;25547;52.530;13.194;2022-12-18T14:03:28;32.17;;;11.82;;
39874;SDS011;25547;52.530;13.194;2022-12-18T14:06:05;39.30;;;14.38;;
39874;SDS011;25547;52.530;13.194;2022-12-18T14:08:35;36.05;;;14.18;;
39874;SDS011;25547;52.530;13.194;2022-12-18T14:11:04;42.97;;;16.17;;
39874;SDS011;25547;52.530;13.194;2022-12-18T14:13:38;35.30;;;13.45;;
39874;SDS011;25547;52.530;13.194;2022-12-18T14:16:06;44.45;;;15.25;;
39874;SDS011;25547;52.530;13.194;2022-12-18T14:26:34;37.20;;;13.00;;
39874;SDS011;25547;52.530;13.194;2022-12-18T14:29:01;38.38;;;13.05;;
39874;SDS011;25547;52.530;13.194;2022-12-18T14:31:46;36.58;;;13.55;;
39874;SDS011;25547;52.530;13.194;2022-12-18T14:34:30;41.35;;;16.20;;
39874;SDS011;25547;52.530;13.194;2022-12-18T14:37:01;38.50;;;13.10;;
39874;SDS011;25547;52.530;13.194;2022-12-18T14:39:27;40.95;;;16.30;;
39874;SDS011;25547;52.530;13.194;2022-12-18T14:41:52;39.03;;;14.98;;
39874;SDS011;25547;52.530;13.194;2022-12-18T14:44:18;39.55;;;14.25;;
39874;SDS011;25547;52.530;13.194;2022-12-18T14:46:46;47.72;;;20.10;;
39874;SDS011;25547;52.530;13.194;2022-12-18T14:49:24;41.03;;;15.57;;
39874;SDS011;25547;52.530;13.194;2022-12-18T14:51:55;55.90;;;18.52;;
39874;SDS011;25547;52.530;13.194;2022-12-18T14:59:30;57.97;;;19.20;;
39874;SDS011;25547;52.530;13.194;2022-12-18T15:02:01;60.30;;;20.85;;
39874;SDS011;25547;52.530;13.194;2022-12-18T15:04:36;67.55;;;24.67;;
39874;SDS011;25547;52.530;13.194;2022-12-18T15:09:43;67.60;;;21.10;;
39874;SDS011;25547;52.530;13.194;2022-12-18T15:12:32;63.17;;;20.73;;
39874;SDS011;25547;52.530;13.194;2022-12-18T15:15:04;59.70;;;20.70;;
39874;SDS011;25547;52.530;13.194;2022-12-18T15:17:30;43.42;;;16.52;;
39874;SDS011;25547;52.530;13.194;2022-12-18T15:20:03;57.83;;;21.92;;
39874;SDS011;25547;52.530;13.194;2022-12-18T15:22:38;60.20;;;20.17;;
39874;SDS011;25547;52.530;13.194;2022-12-18T15:25:22;59.70;;;19.90;;
39874;SDS011;25547;52.530;13.194;2022-12-18T15:27:59;66.82;;;21.05;;
39874;SDS011;25547;52.530;13.194;2022-12-18T15:30:28;54.97;;;21.63;;
39874;SDS011;25547;52.530;13.194;2022-12-18T15:33:16;58.30;;;18.90;;
39874;SDS011;25547;52.530;13.194;2022-12-18T15:35:55;57.67;;;19.08;;
39874;SDS011;25547;52.530;13.194;2022-12-18T15:38:25;56.67;;;19.77;;
39874;SDS011;25547;52.530;13.194;2022-12-18T15:40:54;52.80;;;20.48;;
39874;SDS011;25547;52.530;13.194;2022-12-18T15:43:21;47.25;;;17.75;;
39874;SDS011;25547;52.530;13.194;2022-12-18T15:46:08;50.42;;;18.67;;
39874;SDS011;25547;52.530;13.194;2022-12-18T15:48:41;47.38;;;20.13;;
39874;SDS011;25547;52.530;13.194;2022-12-18T15:51:31;43.63;;;16.98;;
39874;SDS011;25547;52.530;13.194;2022-12-18T15:53:58;44.80;;;18.40;;
39874;SDS011;25547;52.530;13.194;2022-12-18T15:56:26;34.25;;;14.82;;
39874;SDS011;25547;52.530;13.194;2022-12-18T15:59:11;41.03;;;15.88;;
39874;SDS011;25547;52.530;13.194;2022-12-18T16:01:39;41.78;;;16.25;;
39874;SDS011;25547;52.530;13.194;2022-12-18T16:04:09;48.00;;;16.63;;
39874;SDS011;25547;52.530;13.194;2022-12-18T16:06:37;41.17;;;15.73;;
39874;SDS011;25547;52.530;13.194;2022-12-18T16:09:02;35.63;;;13.65;;
39874;SDS011;25547;52.530;13.194;2022-12-18T16:11:28;38.83;;;15.75;;
39874;SDS011;25547;52.530;13.194;2022-12-18T16:14:18;41.35;;;13.57;;
39874;SDS011;25547;52.530;13.194;2022-12-18T16:16:45;31.95;;;12.38;;
39874;SDS011;25547;52.530;13.194;2022-12-18T16:19:14;37.97;;;14.45;;
39874;SDS011;25547;52.530;13.194;2022-12-18T16:21:41;41.45;;;14.43;;
39874;SDS011;25547;52.530;13.194;2022-12-18T16:24:13;30.73;;;12.98;;
39874;SDS011;25547;52.530;13.194;2022-12-18T16:26:39;32.25;;;13.77;;
39874;SDS011;25547;52.530;13.194;2022-12-18T16:29:06;33.03;;;12.90;;
39874;SDS011;25547;52.530;13.194;2022-12-18T16:31:32;36.72;;;13.52;;
39874;SDS011;25547;52.530;13.194;2022-12-18T16:34:13;34.65;;;13.77;;
39874;SDS011;25547;52.530;13.194;2022-12-18T16:36:50;30.27;;;13.80;;
39874;SDS011;25547;52.530;13.194;2022-12-18T16:39:18;33.00;;;14.40;;
39874;SDS011;25547;52.530;13.194;2022-12-18T16:41:44;35.00;;;13.43;;
39874;SDS011;25547;52.530;13.194;2022-12-18T16:44:11;36.83;;;12.55;;
39874;SDS011;25547;52.530;13.194;2022-12-18T16:46:37;33.25;;;12.00;;
39874;SDS011;25547;52.530;13.194;2022-12-18T16:49:03;30.45;;;11.38;;
39874;SDS011;25547;52.530;13.194;2022-12-18T16:51:35;30.92;;;13.63;;
39874;SDS011;25547;52.530;13.194;2022-12-18T16:54:03;29.23;;;12.13;;
39874;SDS011;25547;52.530;13.194;2022-12-18T16:56:30;33.35;;;13.43;;
39874;SDS011;25547;52.530;13.194;2022-12-18T16:58:57;34.42;;;13.85;;
39874;SDS011;25547;52.530;13.194;2022-12-18T17:01:24;32.58;;;12.07;;
39874;SDS011;25547;52.530;13.194;2022-12-18T17:03:55;34.55;;;12.75;;